sensor_id;sensor_type;location;lat;lon;timestamp;pressure;altitude;pressure_sealevel;temperature;humidity
12759;BME280;20944;47.048;15.390;2023-01-10T00:00:13;96064.19;;;2.54;100.00
12759;BME280;20944;47.048;15.390;2023-01-10T00:02:41;96413.28;;;4.62;100.00
12759;BME280;20944;47.048;15.390;2023-01-10T00:05:10;96438.97;;;4.72;100.00
12759;BME280;20944;47.048;15.390;2023-01-10T00:07:38;96443.28;;;4.73;100.00
12759;BME280;20944;47.048;15.390;2023-01-10T00:10:09;96440.84;;;4.67;100.00
12759;BME280;20944;47.048;15.390;2023-01-10T00:12:37;96422.97;;;4.55;100.00
12759;BME280;20944;47.048;15.390;2023-01-10T00:15:23;96428.22;;;4.52;100.00
12759;BME280;20944;47.048;15.390;2023-01-10T00:17:51;96447.53;;;4.76;100.00
12759;BME280;20944;47.048;15.390;2023-01-10T00:20:19;96431.50;;;4.60;100.00
12759;BME280;20944;47.048;15.390;2023-01-10T00:22:47;96442.28;;;4.77;100.00
12759;BME280;20944;47.048;15.390;2023-01-10T00:25:18;96440.44;;;4.84;100.00
12759;BME280;20944;47.048;15.390;2023-01-10T00:27:47;96428.06;;;4.59;100.00
12759;BME280;20944;47.048;15.390;2023-01-10T00:30:20;96463.31;;;4.67;100.00
12759;BME280;20944;47.048;15.390;2023-01-10T00:32:49;96455.50;;;4.68;100.00
12759;BME280;20944;47.048;15.390;2023-01-10T00:35:17;96429.31;;;4.42;100.00
12759;BME280;20944;47.048;15.390;2023-01-10T00:37:45;96454.75;;;4.63;100.00
12759;BME280;20944;47.048;15.390;2023-01-10T00:40:14;96386.75;;;4.13;100.00
12759;BME280;20944;47.048;15.390;2023-01-10T00:42:43;96328.81;;;3.78;100.00
12759;BME280;20944;47.048;15.390;2023-01-10T00:45:29;96475.88;;;4.48;100.00
12759;BME280;20944;47.048;15.390;2023-01-10T00:47:57;96446.84;;;4.30;100.00
12759;BME280;20944;47.048;15.390;2023-01-10T00:50:25;96478.50;;;4.45;100.00
12759;BME280;20944;47.048;15.390;2023-01-10T00:52:53;96463.75;;;4.48;100.00
12759;BME280;20944;47.048;15.390;2023-01-10T00:55:21;96475.72;;;4.54;100.00
12759;BME280;20944;47.048;15.390;2023-01-10T00:57:51;96487.09;;;4.48;100.00
12759;BME280;20944;47.048;15.390;2023-01-10T01:00:19;96487.00;;;4.53;100.00
12759;BME280;20944;47.048;15.390;2023-01-10T01:02:47;96486.16;;;4.51;100.00
12759;BME280;20944;47.048;15.390;2023-01-10T01:05:17;96497.47;;;4.48;100.00
12759;BME280;20944;47.048;15.390;2023-01-10T01:07:47;96488.97;;;4.42;100.00
12759;BME280;20944;47.048;15.390;2023-01-10T01:10:15;96462.59;;;4.23;100.00
12759;BME280;20944;47.048;15.390;2023-01-10T01:12:56;96488.69;;;4.54;100.00
12759;BME280;20944;47.048;15.390;2023-01-10T01:15:25;96437.59;;;4.19;100.00
12759;BME280;20944;47.048;15.390;2023-01-10T01:17:54;96448.88;;;4.18;100.00
12759;BME280;20944;47.048;15.390;2023-01-10T01:20:22;96507.84;;;4.48;100.00
12759;BME280;20944;47.048;15.390;2023-01-10T01:22:50;96508.66;;;4.50;100.00
12759;BME280;20944;47.048;15.390;2023-01-10T01:25:18;96519.81;;;4.54;100.00
12759;BME280;20944;47.048;15.390;2023-01-10T01:27:47;96518.31;;;4.44;100.00
12759;BME280;20944;47.048;15.390;2023-01-10T01:30:17;96514.91;;;4.42;100.00
12759;BME280;20944;47.048;15.390;2023-01-10T01:32:45;96514.94;;;4.39;100.00
12759;BME280;20944;47.048;15.390;2023-01-10T01:35:14;96477.59;;;4.09;100.00
12759;BME280;20944;47.048;15.390;2023-01-10T01:37:43;96527.16;;;4.33;100.00
12759;BME280;20944;47.048;15.390;2023-01-10T01:40:12;96508.31;;;4.25;100.00
12759;BME280;20944;47.048;15.390;2023-01-10T01:42:41;96510.94;;;4.24;100.00
12759;BME280;20944;47.048;15.390;2023-01-10T01:45:33;96453.88;;;3.85;100.00
12759;BME280;20944;47.048;15.390;2023-01-10T01:48:07;96500.66;;;4.19;100.00
12759;BME280;20944;47.048;15.390;2023-01-10T01:50:40;96537.47;;;4.37;100.00
12759;BME280;20944;47.048;15.390;2023-01-10T01:53:13;96534.88;;;4.37;100.00
12759;BME280;20944;47.048;15.390;2023-01-10T01:55:45;96528.00;;;4.36;100.00
12759;BME280;20944;47.048;15.390;2023-01-10T01:58:17;96506.78;;;4.17;100.00
12759;BME280;20944;47.048;15.390;2023-01-10T02:00:50;96527.81;;;4.43;100.00
12759;BME280;20944;47.048;15.390;2023-01-10T02:03:18;96543.38;;;4.43;100.00
12759;BME280;20944;47.048;15.390;2023-01-10T02:05:47;96511.53;;;4.37;100.00
12759;BME280;20944;47.048;15.390;2023-01-10T02:08:15;96531.22;;;4.47;100.00
12759;BME280;20944;47.048;15.390;2023-01-10T02:10:47;96527.72;;;4.48;100.00
12759;BME280;20944;47.048;15.390;2023-01-10T02:13:21;96530.38;;;4.45;100.00
12759;BME280;20944;47.048;15.390;2023-01-10T02:15:52;96526.81;;;4.50;100.00
12759;BME280;20944;47.048;15.390;2023-01-10T02:18:21;96536.22;;;4.54;100.00
12759;BME280;20944;47.048;15.390;2023-01-10T02:21:08;96538.81;;;4.54;100.00
12759;BME280;20944;47.048;15.390;2023-01-10T02:24:19;96534.53;;;4.53;100.00
12759;BME280;20944;47.048;15.390;2023-01-10T02:27:11;96513.56;;;4.63;100.00
12759;BME280;20944;47.048;15.390;2023-01-10T02:32:54;96511.03;;;5.32;100.00
12759;BME280;20944;47.048;15.390;2023-01-10T02:38:31;96509.31;;;5.98;100.00
12759;BME280;20944;47.048;15.390;2023-01-10T02:41:10;96469.00;;;5.82;100.00
12759;BME280;20944;47.048;15.390;2023-01-10T02:43:47;96517.75;;;6.65;73.79
12759;BME280;20944;47.048;15.390;2023-01-10T02:46:20;96514.09;;;6.71;75.10
12759;BME280;20944;47.048;15.390;2023-01-10T02:48:53;96515.59;;;6.80;74.72
12759;BME280;20944;47.048;15.390;2023-01-10T02:51:23;96516.13;;;6.89;73.09
12759;BME280;20944;47.048;15.390;2023-01-10T02:53:56;96519.31;;;6.99;72.55
12759;BME280;20944;47.048;15.390;2023-01-10T03:00:00;96514.72;;;7.34;67.35
12759;BME280;20944;47.048;15.390;2023-01-10T03:02:43;96504.94;;;7.40;66.30
12759;BME280;20944;47.048;15.390;2023-01-10T03:05:25;96527.91;;;7.54;65.41
12759;BME280;20944;47.048;15.390;2023-01-10T03:08:01;96531.69;;;7.45;66.44
12759;BME280;20944;47.048;15.390;2023-01-10T03:10:36;96547.06;;;7.53;65.85
12759;BME280;20944;47.048;15.390;2023-01-10T03:13:12;96532.28;;;7.53;64.74
12759;BME280;20944;47.048;15.390;2023-01-10T03:15:44;96463.00;;;7.21;62.70
12759;BME280;20944;47.048;15.390;2023-01-10T03:18:18;96513.41;;;7.47;64.99
12759;BME280;20944;47.048;15.390;2023-01-10T03:20:50;96533.00;;;7.58;64.95
12759;BME280;20944;47.048;15.390;2023-01-10T03:23:20;96545.94;;;7.62;63.88
12759;BME280;20944;47.048;15.390;2023-01-10T03:25:51;96551.16;;;7.62;63.20
12759;BME280;20944;47.048;15.390;2023-01-10T03:28:25;96559.34;;;7.76;61.17
12759;BME280;20944;47.048;15.390;2023-01-10T03:30:58;96558.38;;;7.78;62.09
12759;BME280;20944;47.048;15.390;2023-01-10T03:33:31;96561.16;;;7.74;62.78
12759;BME280;20944;47.048;15.390;2023-01-10T03:36:08;96534.59;;;7.63;61.68
12759;BME280;20944;47.048;15.390;2023-01-10T03:38:46;96549.13;;;7.70;61.72
12759;BME280;20944;47.048;15.390;2023-01-10T03:41:25;96549.88;;;7.73;60.96
12759;BME280;20944;47.048;15.390;2023-01-10T03:44:03;96530.97;;;7.67;59.45
12759;BME280;20944;47.048;15.390;2023-01-10T03:46:55;96556.19;;;7.66;61.13
12759;BME280;20944;47.048;15.390;2023-01-10T03:49:26;96538.34;;;7.54;60.73
12759;BME280;20944;47.048;15.390;2023-01-10T03:51:57;96584.84;;;7.93;59.14
12759;BME280;20944;47.048;15.390;2023-01-10T03:54:25;96595.81;;;8.02;59.27
12759;BME280;20944;47.048;15.390;2023-01-10T03:56:53;96602.06;;;7.98;59.59
12759;BME280;20944;47.048;15.390;2023-01-10T03:59:23;96506.63;;;7.41;59.72
12759;BME280;20944;47.048;15.390;2023-01-10T04:01:53;96604.00;;;7.92;60.38
12759;BME280;20944;47.048;15.390;2023-01-10T04:04:22;96612.91;;;7.86;60.96
12759;BME280;20944;47.048;15.390;2023-01-10T04:06:50;96620.88;;;7.81;61.30
12759;BME280;20944;47.048;15.390;2023-01-10T04:09:20;96578.13;;;7.61;60.22
12759;BME280;20944;47.048;15.390;2023-01-10T04:11:48;96551.84;;;7.40;59.75
12759;BME280;20944;47.048;15.390;2023-01-10T04:14:16;96625.94;;;7.86;60.08
12759;BME280;20944;47.048;15.390;2023-01-10T04:16:44;96623.22;;;7.89;59.88
12759;BME280;20944;47.048;15.390;2023-01-10T04:19:13;96625.75;;;7.92;59.53
12759;BME280;20944;47.048;15.390;2023-01-10T04:21:41;96605.31;;;7.78;58.40
12759;BME280;20944;47.048;15.390;2023-01-10T04:24:09;96632.47;;;7.98;58.21
12759;BME280;20944;47.048;15.390;2023-01-10T04:26:39;96636.63;;;8.03;57.77
12759;BME280;20944;47.048;15.390;2023-01-10T04:29:07;96589.22;;;7.66;58.89
12759;BME280;20944;47.048;15.390;2023-01-10T04:31:35;96646.22;;;8.03;58.72
12759;BME280;20944;47.048;15.390;2023-01-10T04:34:05;96574.63;;;7.60;59.06
12759;BME280;20944;47.048;15.390;2023-01-10T04:36:34;96598.75;;;7.67;58.94
12759;BME280;20944;47.048;15.390;2023-01-10T04:39:03;96651.91;;;7.89;58.18
12759;BME280;20944;47.048;15.390;2023-01-10T04:41:31;96666.34;;;7.99;58.55
12759;BME280;20944;47.048;15.390;2023-01-10T04:44:01;96641.59;;;7.86;59.05
12759;BME280;20944;47.048;15.390;2023-01-10T04:46:29;96660.22;;;8.00;57.82
12759;BME280;20944;47.048;15.390;2023-01-10T04:48:58;96620.16;;;7.76;56.62
12759;BME280;20944;47.048;15.390;2023-01-10T04:51:27;96665.13;;;8.09;56.85
12759;BME280;20944;47.048;15.390;2023-01-10T04:53:55;96677.44;;;8.06;57.36
12759;BME280;20944;47.048;15.390;2023-01-10T04:56:24;96672.06;;;7.84;58.03
12759;BME280;20944;47.048;15.390;2023-01-10T04:58:52;96685.81;;;7.89;57.87
12759;BME280;20944;47.048;15.390;2023-01-10T05:01:23;96669.41;;;7.85;57.74
12759;BME280;20944;47.048;15.390;2023-01-10T05:03:53;96689.97;;;7.95;57.91
12759;BME280;20944;47.048;15.390;2023-01-10T05:06:23;96688.41;;;7.89;57.60
12759;BME280;20944;47.048;15.390;2023-01-10T05:08:51;96702.09;;;7.96;57.62
12759;BME280;20944;47.048;15.390;2023-01-10T05:11:19;96702.16;;;7.94;58.03
12759;BME280;20944;47.048;15.390;2023-01-10T05:13:48;96698.72;;;7.94;57.21
12759;BME280;20944;47.048;15.390;2023-01-10T05:16:16;96571.91;;;7.10;57.15
12759;BME280;20944;47.048;15.390;2023-01-10T05:18:46;96720.16;;;8.02;56.92
12759;BME280;20944;47.048;15.390;2023-01-10T05:21:14;96704.78;;;7.94;56.50
12759;BME280;20944;47.048;15.390;2023-01-10T05:23:43;96639.44;;;7.44;56.78
12759;BME280;20944;47.048;15.390;2023-01-10T05:26:12;96728.72;;;8.07;56.13
12759;BME280;20944;47.048;15.390;2023-01-10T05:28:41;96646.63;;;7.38;57.59
12759;BME280;20944;47.048;15.390;2023-01-10T05:31:12;96724.06;;;7.89;56.12
12759;BME280;20944;47.048;15.390;2023-01-10T05:33:43;96745.16;;;8.09;55.84
12759;BME280;20944;47.048;15.390;2023-01-10T05:36:14;96753.81;;;8.11;56.00
12759;BME280;20944;47.048;15.390;2023-01-10T05:38:42;96751.22;;;8.09;56.33
12759;BME280;20944;47.048;15.390;2023-01-10T05:41:10;96749.63;;;8.05;55.71
12759;BME280;20944;47.048;15.390;2023-01-10T05:43:38;96757.94;;;8.17;55.43
12759;BME280;20944;47.048;15.390;2023-01-10T05:46:07;96763.16;;;8.17;55.60
12759;BME280;20944;47.048;15.390;2023-01-10T05:48:35;96688.28;;;7.66;55.51
12759;BME280;20944;47.048;15.390;2023-01-10T05:51:04;96780.75;;;8.11;55.94
12759;BME280;20944;47.048;15.390;2023-01-10T05:53:34;96781.44;;;8.17;54.92
12759;BME280;20944;47.048;15.390;2023-01-10T05:56:02;96774.31;;;8.22;55.18
12759;BME280;20944;47.048;15.390;2023-01-10T05:58:30;96780.56;;;8.18;55.56
12759;BME280;20944;47.048;15.390;2023-01-10T06:00:59;96774.69;;;8.11;55.93
12759;BME280;20944;47.048;15.390;2023-01-10T06:03:27;96779.69;;;8.17;55.87
12759;BME280;20944;47.048;15.390;2023-01-10T06:05:55;96785.72;;;8.19;56.28
12759;BME280;20944;47.048;15.390;2023-01-10T06:08:24;96814.59;;;8.13;55.67
12759;BME280;20944;47.048;15.390;2023-01-10T06:10:54;96805.09;;;8.10;55.63
12759;BME280;20944;47.048;15.390;2023-01-10T06:13:22;96803.50;;;8.06;56.08
12759;BME280;20944;47.048;15.390;2023-01-10T06:15:50;96798.28;;;8.06;55.76
12759;BME280;20944;47.048;15.390;2023-01-10T06:18:19;96798.63;;;7.96;55.95
12759;BME280;20944;47.048;15.390;2023-01-10T06:20:47;96824.38;;;8.06;55.79
12759;BME280;20944;47.048;15.390;2023-01-10T06:23:15;96803.97;;;7.91;55.58
12759;BME280;20944;47.048;15.390;2023-01-10T06:25:44;96816.69;;;8.02;55.79
12759;BME280;20944;47.048;15.390;2023-01-10T06:28:14;96833.97;;;8.06;55.88
12759;BME280;20944;47.048;15.390;2023-01-10T06:30:42;96840.16;;;8.02;56.11
12759;BME280;20944;47.048;15.390;2023-01-10T06:33:10;96857.25;;;8.12;55.39
12759;BME280;20944;47.048;15.390;2023-01-10T06:35:39;96864.03;;;8.18;54.78
12759;BME280;20944;47.048;15.390;2023-01-10T06:38:07;96842.72;;;8.03;54.67
12759;BME280;20944;47.048;15.390;2023-01-10T06:40:35;96859.81;;;8.14;56.11
12759;BME280;20944;47.048;15.390;2023-01-10T06:43:04;96874.13;;;8.00;56.49
12759;BME280;20944;47.048;15.390;2023-01-10T06:45:33;96845.22;;;7.49;56.98
12759;BME280;20944;47.048;15.390;2023-01-10T06:48:02;96883.97;;;7.91;56.85
12759;BME280;20944;47.048;15.390;2023-01-10T06:50:30;96885.22;;;7.77;57.36
12759;BME280;20944;47.048;15.390;2023-01-10T06:53:01;96899.78;;;7.84;57.30
12759;BME280;20944;47.048;15.390;2023-01-10T06:55:30;96869.19;;;7.60;57.27
12759;BME280;20944;47.048;15.390;2023-01-10T06:58:00;96860.88;;;7.47;57.32
12759;BME280;20944;47.048;15.390;2023-01-10T07:00:29;96924.03;;;7.88;57.47
12759;BME280;20944;47.048;15.390;2023-01-10T07:03:00;96895.19;;;7.63;57.51
12759;BME280;20944;47.048;15.390;2023-01-10T07:05:28;96933.91;;;7.77;58.47
12759;BME280;20944;47.048;15.390;2023-01-10T07:07:57;96940.78;;;7.81;58.16
12759;BME280;20944;47.048;15.390;2023-01-10T07:10:27;96950.97;;;7.89;58.13
12759;BME280;20944;47.048;15.390;2023-01-10T07:12:55;96966.84;;;7.81;58.91
12759;BME280;20944;47.048;15.390;2023-01-10T07:15:24;96935.31;;;7.57;58.77
12759;BME280;20944;47.048;15.390;2023-01-10T07:17:55;96976.53;;;7.76;58.88
12759;BME280;20944;47.048;15.390;2023-01-10T07:20:25;96983.47;;;7.77;59.33
12759;BME280;20944;47.048;15.390;2023-01-10T07:22:53;96986.03;;;7.78;59.95
12759;BME280;20944;47.048;15.390;2023-01-10T07:25:22;96994.00;;;7.74;59.35
12759;BME280;20944;47.048;15.390;2023-01-10T07:27:51;96994.28;;;7.63;60.00
12759;BME280;20944;47.048;15.390;2023-01-10T07:30:21;96998.41;;;7.70;60.18
12759;BME280;20944;47.048;15.390;2023-01-10T07:32:54;97008.75;;;7.75;59.13
12759;BME280;20944;47.048;15.390;2023-01-10T07:35:24;97006.25;;;7.70;60.22
12759;BME280;20944;47.048;15.390;2023-01-10T07:37:53;97002.78;;;7.70;60.49
12759;BME280;20944;47.048;15.390;2023-01-10T07:40:21;97011.41;;;7.72;59.57
12759;BME280;20944;47.048;15.390;2023-01-10T07:42:55;97012.19;;;7.75;60.09
12759;BME280;20944;47.048;15.390;2023-01-10T07:45:23;97021.19;;;7.96;57.91
12759;BME280;20944;47.048;15.390;2023-01-10T07:47:55;97021.28;;;7.93;60.07
12759;BME280;20944;47.048;15.390;2023-01-10T07:50:26;97016.25;;;7.85;61.10
12759;BME280;20944;47.048;15.390;2023-01-10T07:52:55;97024.06;;;7.87;60.74
12759;BME280;20944;47.048;15.390;2023-01-10T07:55:23;97030.97;;;7.88;61.82
12759;BME280;20944;47.048;15.390;2023-01-10T07:57:52;97009.53;;;7.77;61.00
12759;BME280;20944;47.048;15.390;2023-01-10T08:00:20;97045.66;;;7.92;60.80
12759;BME280;20944;47.048;15.390;2023-01-10T08:02:52;97046.34;;;7.99;61.07
12759;BME280;20944;47.048;15.390;2023-01-10T08:05:21;97048.91;;;8.00;61.21
12759;BME280;20944;47.048;15.390;2023-01-10T08:07:51;97031.88;;;7.87;61.21
12759;BME280;20944;47.048;15.390;2023-01-10T08:10:21;97064.41;;;8.06;61.12
12759;BME280;20944;47.048;15.390;2023-01-10T08:12:49;97060.25;;;7.99;58.46
12759;BME280;20944;47.048;15.390;2023-01-10T08:15:17;97078.03;;;8.18;59.21
12759;BME280;20944;47.048;15.390;2023-01-10T08:17:45;96965.28;;;7.43;59.14
12759;BME280;20944;47.048;15.390;2023-01-10T08:20:14;97070.09;;;8.21;59.60
12759;BME280;20944;47.048;15.390;2023-01-10T08:22:42;97090.75;;;8.28;59.72
12759;BME280;20944;47.048;15.390;2023-01-10T08:25:12;97104.97;;;8.18;59.86
12759;BME280;20944;47.048;15.390;2023-01-10T08:27:40;97102.38;;;8.17;60.14
12759;BME280;20944;47.048;15.390;2023-01-10T08:30:10;97114.94;;;8.35;59.48
12759;BME280;20944;47.048;15.390;2023-01-10T08:32:38;97120.16;;;8.36;58.74
12759;BME280;20944;47.048;15.390;2023-01-10T08:35:07;97123.41;;;8.45;57.33
12759;BME280;20944;47.048;15.390;2023-01-10T08:37:36;97122.56;;;8.44;57.57
12759;BME280;20944;47.048;15.390;2023-01-10T08:40:06;97125.06;;;8.47;57.73
12759;BME280;20944;47.048;15.390;2023-01-10T08:42:36;97109.16;;;8.24;57.60
12759;BME280;20944;47.048;15.390;2023-01-10T08:45:05;97105.50;;;8.31;58.62
12759;BME280;20944;47.048;15.390;2023-01-10T08:47:33;97149.25;;;8.54;58.28
12759;BME280;20944;47.048;15.390;2023-01-10T08:50:02;97159.47;;;8.63;59.23
12759;BME280;20944;47.048;15.390;2023-01-10T08:52:32;97158.34;;;8.72;59.01
12759;BME280;20944;47.048;15.390;2023-01-10T08:55:00;97166.06;;;8.76;59.16
12759;BME280;20944;47.048;15.390;2023-01-10T08:57:29;97174.88;;;8.72;58.48
12759;BME280;20944;47.048;15.390;2023-01-10T08:59:59;97054.88;;;8.04;58.28
12759;BME280;20944;47.048;15.390;2023-01-10T09:02:27;97169.63;;;8.74;58.91
12759;BME280;20944;47.048;15.390;2023-01-10T09:04:56;97193.19;;;9.02;58.24
12759;BME280;20944;47.048;15.390;2023-01-10T09:07:25;97167.00;;;9.03;57.78
12759;BME280;20944;47.048;15.390;2023-01-10T09:09:53;97211.94;;;9.16;58.17
12759;BME280;20944;47.048;15.390;2023-01-10T09:12:22;97205.50;;;9.28;57.88
12759;BME280;20944;47.048;15.390;2023-01-10T09:15:09;97192.53;;;9.25;56.87
12759;BME280;20944;47.048;15.390;2023-01-10T09:17:38;97214.44;;;9.50;56.77
12759;BME280;20944;47.048;15.390;2023-01-10T09:20:08;97172.13;;;9.36;56.43
12759;BME280;20944;47.048;15.390;2023-01-10T09:22:36;97217.22;;;9.72;55.86
12759;BME280;20944;47.048;15.390;2023-01-10T09:25:06;97239.78;;;9.76;56.41
12759;BME280;20944;47.048;15.390;2023-01-10T09:27:34;97193.34;;;9.55;55.60
12759;BME280;20944;47.048;15.390;2023-01-10T09:30:02;97231.94;;;9.76;55.72
12759;BME280;20944;47.048;15.390;2023-01-10T09:32:33;97208.72;;;9.65;55.16
12759;BME280;20944;47.048;15.390;2023-01-10T09:35:01;97213.56;;;9.78;55.54
12759;BME280;20944;47.048;15.390;2023-01-10T09:37:29;97148.94;;;9.53;56.22
12759;BME280;20944;47.048;15.390;2023-01-10T09:39:59;97240.59;;;10.06;54.12
12759;BME280;20944;47.048;15.390;2023-01-10T09:42:37;97261.09;;;10.20;55.09
12759;BME280;20944;47.048;15.390;2023-01-10T09:45:14;97270.06;;;10.11;52.97
12759;BME280;20944;47.048;15.390;2023-01-10T09:47:50;97262.59;;;10.00;53.51
12759;BME280;20944;47.048;15.390;2023-01-10T09:50:27;97285.56;;;9.61;53.85
12759;BME280;20944;47.048;15.390;2023-01-10T09:53:02;97277.41;;;9.72;54.71
12759;BME280;20944;47.048;15.390;2023-01-10T09:55:34;97289.44;;;9.78;54.88
12759;BME280;20944;47.048;15.390;2023-01-10T09:58:08;97294.13;;;9.66;53.58
12759;BME280;20944;47.048;15.390;2023-01-10T10:00:42;97296.25;;;9.54;53.52
12759;BME280;20944;47.048;15.390;2023-01-10T10:03:22;97289.50;;;9.46;53.87
12759;BME280;20944;47.048;15.390;2023-01-10T10:05:52;97296.00;;;9.63;53.63
12759;BME280;20944;47.048;15.390;2023-01-10T10:08:36;97291.34;;;9.72;54.25
12759;BME280;20944;47.048;15.390;2023-01-10T10:11:22;97278.53;;;9.63;53.48
12759;BME280;20944;47.048;15.390;2023-01-10T10:14:02;97291.38;;;9.71;54.46
12759;BME280;20944;47.048;15.390;2023-01-10T10:16:37;97284.22;;;9.78;53.92
12759;BME280;20944;47.048;15.390;2023-01-10T10:19:21;97287.00;;;9.71;54.57
12759;BME280;20944;47.048;15.390;2023-01-10T10:21:59;97266.38;;;9.62;54.35
12759;BME280;20944;47.048;15.390;2023-01-10T10:24:40;97301.50;;;9.83;53.79
12759;BME280;20944;47.048;15.390;2023-01-10T10:27:18;97310.31;;;9.81;54.51
12759;BME280;20944;47.048;15.390;2023-01-10T10:30:15;97304.09;;;9.83;54.50
12759;BME280;20944;47.048;15.390;2023-01-10T10:32:59;97284.31;;;9.75;54.61
12759;BME280;20944;47.048;15.390;2023-01-10T10:35:35;97307.53;;;9.85;54.59
12759;BME280;20944;47.048;15.390;2023-01-10T10:38:10;97304.78;;;9.90;55.28
12759;BME280;20944;47.048;15.390;2023-01-10T10:40:42;97315.06;;;9.96;54.68
12759;BME280;20944;47.048;15.390;2023-01-10T10:43:16;97292.00;;;9.79;53.54
12759;BME280;20944;47.048;15.390;2023-01-10T10:45:51;97279.34;;;9.65;54.46
12759;BME280;20944;47.048;15.390;2023-01-10T10:48:24;97317.81;;;9.91;54.89
12759;BME280;20944;47.048;15.390;2023-01-10T10:51:04;97318.81;;;9.87;54.74
12759;BME280;20944;47.048;15.390;2023-01-10T10:53:34;97325.91;;;9.84;53.41
12759;BME280;20944;47.048;15.390;2023-01-10T10:56:04;96950.28;;;7.51;53.79
12759;BME280;20944;47.048;15.390;2023-01-10T10:58:42;97316.50;;;9.77;54.43
12759;BME280;20944;47.048;15.390;2023-01-10T11:01:12;97329.31;;;9.86;54.79
12759;BME280;20944;47.048;15.390;2023-01-10T11:03:44;97338.97;;;9.84;54.62
12759;BME280;20944;47.048;15.390;2023-01-10T11:06:16;97329.38;;;9.84;54.34
12759;BME280;20944;47.048;15.390;2023-01-10T11:08:47;97318.28;;;9.76;54.82
12759;BME280;20944;47.048;15.390;2023-01-10T11:11:20;97320.00;;;9.77;53.91
12759;BME280;20944;47.048;15.390;2023-01-10T11:13:53;97317.00;;;9.89;54.48
12759;BME280;20944;47.048;15.390;2023-01-10T11:16:28;97323.00;;;9.93;53.35
12759;BME280;20944;47.048;15.390;2023-01-10T11:19:14;97338.97;;;10.13;53.49
12759;BME280;20944;47.048;15.390;2023-01-10T11:21:48;97286.16;;;9.99;53.13
12759;BME280;20944;47.048;15.390;2023-01-10T11:24:27;97341.66;;;10.40;52.93
12759;BME280;20944;47.048;15.390;2023-01-10T11:26:57;97355.34;;;10.48;52.54
12759;BME280;20944;47.048;15.390;2023-01-10T11:29:30;97331.78;;;10.48;51.86
12759;BME280;20944;47.048;15.390;2023-01-10T11:32:07;97351.25;;;10.67;52.08
12759;BME280;20944;47.048;15.390;2023-01-10T11:34:36;97356.28;;;10.73;50.43
12759;BME280;20944;47.048;15.390;2023-01-10T11:37:17;97354.63;;;10.43;50.27
12759;BME280;20944;47.048;15.390;2023-01-10T11:39:46;97341.84;;;10.34;51.52
12759;BME280;20944;47.048;15.390;2023-01-10T11:42:26;97353.38;;;10.28;51.82
12759;BME280;20944;47.048;15.390;2023-01-10T11:45:20;97362.69;;;10.37;51.88
12759;BME280;20944;47.048;15.390;2023-01-10T11:47:51;97377.56;;;10.36;51.22
12759;BME280;20944;47.048;15.390;2023-01-10T11:50:23;97370.47;;;10.40;51.54
12759;BME280;20944;47.048;15.390;2023-01-10T11:52:54;97367.94;;;10.37;52.14
12759;BME280;20944;47.048;15.390;2023-01-10T11:55:24;97374.72;;;10.44;51.94
12759;BME280;20944;47.048;15.390;2023-01-10T11:57:58;97367.59;;;10.47;52.20
12759;BME280;20944;47.048;15.390;2023-01-10T12:00:41;97372.75;;;10.50;51.72
12759;BME280;20944;47.048;15.390;2023-01-10T12:03:16;97366.16;;;10.65;51.47
12759;BME280;20944;47.048;15.390;2023-01-10T12:05:53;97326.84;;;10.65;50.90
12759;BME280;20944;47.048;15.390;2023-01-10T12:08:26;97369.09;;;11.34;50.05
12759;BME280;20944;47.048;15.390;2023-01-10T12:10:58;97366.53;;;11.56;49.39
12759;BME280;20944;47.048;15.390;2023-01-10T12:13:28;97326.97;;;11.39;48.57
12759;BME280;20944;47.048;15.390;2023-01-10T12:16:17;97387.31;;;11.87;47.95
12759;BME280;20944;47.048;15.390;2023-01-10T12:18:48;97376.66;;;11.67;46.96
12759;BME280;20944;47.048;15.390;2023-01-10T12:21:22;97385.09;;;11.75;48.14
12759;BME280;20944;47.048;15.390;2023-01-10T12:23:56;97296.13;;;11.44;47.35
12759;BME280;20944;47.048;15.390;2023-01-10T12:26:28;97398.06;;;12.04;46.79
12759;BME280;20944;47.048;15.390;2023-01-10T12:29:04;97394.47;;;11.83;46.25
12759;BME280;20944;47.048;15.390;2023-01-10T12:31:36;97406.44;;;11.41;47.46
12759;BME280;20944;47.048;15.390;2023-01-10T12:34:12;97384.19;;;11.27;47.57
12759;BME280;20944;47.048;15.390;2023-01-10T12:36:49;97258.56;;;10.45;47.79
12759;BME280;20944;47.048;15.390;2023-01-10T12:39:23;97408.50;;;10.79;48.37
12759;BME280;20944;47.048;15.390;2023-01-10T12:42:01;97386.72;;;11.04;48.25
12759;BME280;20944;47.048;15.390;2023-01-10T12:44:57;97372.00;;;11.25;48.18
12759;BME280;20944;47.048;15.390;2023-01-10T12:47:30;97403.28;;;11.81;48.09
12759;BME280;20944;47.048;15.390;2023-01-10T12:50:03;97402.34;;;12.07;46.83
12759;BME280;20944;47.048;15.390;2023-01-10T12:52:38;97407.25;;;12.16;45.94
12759;BME280;20944;47.048;15.390;2023-01-10T12:55:14;97416.38;;;12.29;45.70
12759;BME280;20944;47.048;15.390;2023-01-10T12:57:45;97411.94;;;12.08;45.09
12759;BME280;20944;47.048;15.390;2023-01-10T13:00:20;97416.25;;;11.85;46.10
12759;BME280;20944;47.048;15.390;2023-01-10T13:02:54;97414.47;;;11.86;46.60
12759;BME280;20944;47.048;15.390;2023-01-10T13:05:25;97346.38;;;11.58;46.25
12759;BME280;20944;47.048;15.390;2023-01-10T13:07:59;97430.31;;;12.08;45.60
12759;BME280;20944;47.048;15.390;2023-01-10T13:10:41;97433.78;;;12.32;44.46
12759;BME280;20944;47.048;15.390;2023-01-10T13:13:15;97412.28;;;12.22;45.21
12759;BME280;20944;47.048;15.390;2023-01-10T13:15:51;97420.28;;;13.07;44.39
12759;BME280;20944;47.048;15.390;2023-01-10T13:18:24;97419.19;;;13.95;41.71
12759;BME280;20944;47.048;15.390;2023-01-10T13:21:03;97426.03;;;14.94;40.24
12759;BME280;20944;47.048;15.390;2023-01-10T13:23:38;97431.91;;;15.35;38.96
12759;BME280;20944;47.048;15.390;2023-01-10T13:26:14;97432.56;;;15.04;39.21
12759;BME280;20944;47.048;15.390;2023-01-10T13:28:53;97427.47;;;15.35;38.84
12759;BME280;20944;47.048;15.390;2023-01-10T13:31:24;97433.72;;;16.19;36.86